Zim Rio Grande — 9HNV9 — position and weather

sailwx.info

Track history (hours):
 
Tides and Currents Weather Stations Pressure Air Temp Water Temp Dewpoint Dewpoint Depression Visibility Wind Speed Wind Dir Waves Ship Positions

Zim Rio Grande

Last reported at 2014-Oct-31 03:33 UTC. Time now 2014-Oct-31 04:57 UTC.
Position N 43°52' E 008°19'.

Length 260 m; draft 11.3 m.

Type: Ship (hazmat cat A). MMSI: 249253000.

Date/timePositionNaut miles runAvg speedWind from/ knotsBaromVisibWave heightAir tempDewpointWater temp
2014-Oct-31 03:33N 43°52' E 008°19'1817.9
2014-Oct-31 02:33N 44°06' E 008°36'1717.4
2014-Oct-31 01:33N 44°17' E 008°54'7 6.9
2014-Oct-31 00:33N 44°24' E 008°54'0 0.0
2014-Oct-30 23:33N 44°24' E 008°54'0 0.0
2014-Oct-30 22:33N 44°24' E 008°54'0 0.0
2014-Oct-30 21:30N 44°24' E 008°54'0 0.0
2014-Oct-30 20:33N 44°24' E 008°54'0 0.0
2014-Oct-30 19:33N 44°24' E 008°54'0 0.0
2014-Oct-30 18:33N 44°24' E 008°54'0 0.0
2014-Oct-30 17:33N 44°24' E 008°54'0 0.0
2014-Oct-30 16:33N 44°24' E 008°54'0 0.0
2014-Oct-30 15:33N 44°24' E 008°54'0 0.0
2014-Oct-30 14:30N 44°24' E 008°54'0 0.0
2014-Oct-30 13:33N 44°24' E 008°54'0 0.0
2014-Oct-30 12:33N 44°24' E 008°54'0 0.0
2014-Oct-30 11:30N 44°24' E 008°54'0 0.0
2014-Oct-30 10:33N 44°24' E 008°54'0 0.0
2014-Oct-30 09:30N 44°24' E 008°54'0 0.0
2014-Oct-30 08:33N 44°24' E 008°54'0 0.0
2014-Oct-30 07:33N 44°24' E 008°54'1 0.5
2014-Oct-30 06:33N 44°24' E 008°54'5 5.0
2014-Oct-30 05:33N 44°20' E 008°59'6 5.8
2014-Oct-30 04:33N 44°15' E 009°04'1 0.7
2014-Oct-30 03:33N 44°15' E 009°04'6 6.3
2014-Oct-30 02:33N 44°11' E 009°11'1212.4
2014-Oct-30 01:33N 44°02' E 009°22'1312.8
2014-Oct-30 00:33N 43°52' E 009°33'1312.9
2014-Oct-29 23:33N 43°42' E 009°45'1211.5
2014-Oct-29 22:33N 43°35' E 009°58'1111.3
2014-Oct-29 21:33N 43°31' E 010°12'6 5.5
2014-Oct-29 20:31N 43°35' E 010°18'0 0.0
2014-Oct-29 19:31N 43°35' E 010°18'0 0.0
2014-Oct-29 18:31N 43°35' E 010°18'0 0.0
2014-Oct-29 17:31N 43°35' E 010°18'0 0.0
2014-Oct-29 16:28N 43°35' E 010°18'0 0.0
2014-Oct-29 15:31N 43°35' E 010°18'0 0.0
2014-Oct-29 14:31N 43°35' E 010°18'0 0.0
2014-Oct-29 13:31N 43°35' E 010°18'0 0.0
2014-Oct-29 12:31N 43°35' E 010°18'0 0.0
2014-Oct-29 11:28N 43°35' E 010°18'0 0.0
2014-Oct-29 10:31N 43°35' E 010°18'0 0.0
2014-Oct-29 09:31N 43°35' E 010°18'0 0.0
2014-Oct-29 08:31N 43°35' E 010°18'0 0.0
2014-Oct-29 07:28N 43°35' E 010°18'0 0.0
2014-Oct-29 06:31N 43°35' E 010°18'1 1.5
2014-Oct-29 05:34N 43°33' E 010°18'8 8.2
2014-Oct-29 04:34N 43°26' E 010°12'1817.6
2014-Oct-29 03:33N 43°09' E 010°05'1818.0
2014-Oct-29 02:33N 42°52' E 009°57'35117.5
2014-Oct-28 06:31N 38°38' E 015°17'39715.1
2014-Oct-27 04:11N 36°49' E 023°20'4617.3
2014-Oct-27 01:33N 37°31' E 023°41'1717.2
2014-Oct-27 00:33N 37°48' E 023°37'9 8.9
2014-Oct-26 23:32N 37°57' E 023°35'0 0.0
2014-Oct-26 22:29N 37°57' E 023°35'0 0.0
2014-Oct-26 21:32N 37°57' E 023°35'0 0.0
2014-Oct-26 20:32N 37°57' E 023°35'0 0.0
2014-Oct-26 19:32N 37°57' E 023°35'0 0.0
2014-Oct-26 18:32N 37°57' E 023°35'0 0.0
2014-Oct-26 17:33N 37°57' E 023°35'0 0.0
2014-Oct-26 16:33N 37°57' E 023°35'0 0.0
2014-Oct-26 15:33N 37°57' E 023°35'0 0.0
2014-Oct-26 14:33N 37°57' E 023°35'0 0.0
2014-Oct-26 13:33N 37°57' E 023°35'0 0.0
2014-Oct-26 12:33N 37°57' E 023°35'0 0.0
2014-Oct-26 11:33N 37°57' E 023°35'0 0.0
2014-Oct-26 10:33N 37°57' E 023°35'0 0.0
2014-Oct-26 09:33N 37°57' E 023°35'0 0.0
2014-Oct-26 08:33N 37°57' E 023°35'0 0.0
2014-Oct-26 07:33N 37°57' E 023°35'0 0.0
2014-Oct-26 06:33N 37°57' E 023°35'0 0.0
2014-Oct-26 05:34N 37°57' E 023°35'3 3.3
2014-Oct-26 04:34N 37°54' E 023°37'1010.3
2014-Oct-26 03:34N 37°45' E 023°43'1313.4
2014-Oct-26 02:34N 37°34' E 023°52'0 0.4
2014-Oct-26 01:26N 37°34' E 023°52'2 1.1
2014-Oct-25 23:17N 37°35' E 023°50'1 1.4
2014-Oct-25 22:32N 37°36' E 023°49'1 0.9
2014-Oct-25 21:33N 37°37' E 023°49'4 4.1
2014-Oct-25 20:32N 37°33' E 023°46'2 1.4
2014-Oct-25 19:23N 37°34' E 023°47'1 1.3
2014-Oct-25 18:32N 37°35' E 023°48'1 1.1
2014-Oct-25 17:29N 37°36' E 023°49'0 0.3
2014-Oct-25 16:32N 37°37' E 023°49'4511.2
2014-Oct-25 12:33N 36°54' E 024°07'1212.4
2014-Oct-25 11:33N 36°42' E 024°12'1211.6
2014-Oct-25 10:33N 36°33' E 024°21'1212.4
2014-Oct-25 09:33N 36°26' E 024°33'1212.2
2014-Oct-25 08:33N 36°19' E 024°46'1212.1
2014-Oct-25 07:33N 36°13' E 024°59'1212.0
2014-Oct-25 06:33N 36°06' E 025°11'1212.0
2014-Oct-25 05:33N 35°60' E 025°24'1212.2
2014-Oct-25 04:33N 35°53' E 025°36'1212.0
2014-Oct-25 03:33N 35°47' E 025°49'47312.4
2014-Oct-23 13:21N 32°57' E 034°43'1112.4
2014-Oct-23 12:27N 32°54' E 034°56'5 0.1
2014-Oct-22 01:27N 32°52' E 034°50'1212.7
2014-Oct-22 00:33N 32°40' E 034°46'1212.6
2014-Oct-21 23:33N 32°28' E 034°43'1312.5
2014-Oct-21 22:33N 32°16' E 034°38'1312.5
2014-Oct-21 21:32N 32°04' E 034°34'  
Track history (hours):
 
Tides and Currents Weather Stations Pressure Air Temp Water Temp Dewpoint Dewpoint Depression Visibility Wind Speed Wind Dir Waves Ship Positions

Zim Rio Grande

Last reported at 2014-Oct-31 03:33 UTC. Time now 2014-Oct-31 04:57 UTC.
Position N 43°52' E 008°19'.

Length 260 m; draft 11.3 m.

Type: Ship (hazmat cat A). MMSI: 249253000.

Date/timePositionNaut miles runAvg speedWind from/ knotsBaromVisibWave heightAir tempDewpointWater temp
2014-Oct-31 03:33N 43°52' E 008°19'1817.9
2014-Oct-31 02:33N 44°06' E 008°36'1717.4
2014-Oct-31 01:33N 44°17' E 008°54'7 6.9
2014-Oct-31 00:33N 44°24' E 008°54'0 0.0
2014-Oct-30 23:33N 44°24' E 008°54'0 0.0
2014-Oct-30 22:33N 44°24' E 008°54'0 0.0
2014-Oct-30 21:30N 44°24' E 008°54'0 0.0
2014-Oct-30 20:33N 44°24' E 008°54'0 0.0
2014-Oct-30 19:33N 44°24' E 008°54'0 0.0
2014-Oct-30 18:33N 44°24' E 008°54'0 0.0
2014-Oct-30 17:33N 44°24' E 008°54'0 0.0
2014-Oct-30 16:33N 44°24' E 008°54'0 0.0
2014-Oct-30 15:33N 44°24' E 008°54'0 0.0
2014-Oct-30 14:30N 44°24' E 008°54'0 0.0
2014-Oct-30 13:33N 44°24' E 008°54'0 0.0
2014-Oct-30 12:33N 44°24' E 008°54'0 0.0
2014-Oct-30 11:30N 44°24' E 008°54'0 0.0
2014-Oct-30 10:33N 44°24' E 008°54'0 0.0
2014-Oct-30 09:30N 44°24' E 008°54'0 0.0
2014-Oct-30 08:33N 44°24' E 008°54'0 0.0
2014-Oct-30 07:33N 44°24' E 008°54'1 0.5
2014-Oct-30 06:33N 44°24' E 008°54'5 5.0
2014-Oct-30 05:33N 44°20' E 008°59'6 5.8
2014-Oct-30 04:33N 44°15' E 009°04'1 0.7
2014-Oct-30 03:33N 44°15' E 009°04'6 6.3
2014-Oct-30 02:33N 44°11' E 009°11'1212.4
2014-Oct-30 01:33N 44°02' E 009°22'1312.8
2014-Oct-30 00:33N 43°52' E 009°33'1312.9
2014-Oct-29 23:33N 43°42' E 009°45'1211.5
2014-Oct-29 22:33N 43°35' E 009°58'1111.3
2014-Oct-29 21:33N 43°31' E 010°12'6 5.5
2014-Oct-29 20:31N 43°35' E 010°18'0 0.0
2014-Oct-29 19:31N 43°35' E 010°18'0 0.0
2014-Oct-29 18:31N 43°35' E 010°18'0 0.0
2014-Oct-29 17:31N 43°35' E 010°18'0 0.0
2014-Oct-29 16:28N 43°35' E 010°18'0 0.0
2014-Oct-29 15:31N 43°35' E 010°18'0 0.0
2014-Oct-29 14:31N 43°35' E 010°18'0 0.0
2014-Oct-29 13:31N 43°35' E 010°18'0 0.0
2014-Oct-29 12:31N 43°35' E 010°18'0 0.0
2014-Oct-29 11:28N 43°35' E 010°18'0 0.0
2014-Oct-29 10:31N 43°35' E 010°18'0 0.0
2014-Oct-29 09:31N 43°35' E 010°18'0 0.0
2014-Oct-29 08:31N 43°35' E 010°18'0 0.0
2014-Oct-29 07:28N 43°35' E 010°18'0 0.0
2014-Oct-29 06:31N 43°35' E 010°18'1 1.5
2014-Oct-29 05:34N 43°33' E 010°18'8 8.2
2014-Oct-29 04:34N 43°26' E 010°12'1817.6
2014-Oct-29 03:33N 43°09' E 010°05'1818.0
2014-Oct-29 02:33N 42°52' E 009°57'35117.5
2014-Oct-28 06:31N 38°38' E 015°17'39715.1
2014-Oct-27 04:11N 36°49' E 023°20'4617.3
2014-Oct-27 01:33N 37°31' E 023°41'1717.2
2014-Oct-27 00:33N 37°48' E 023°37'9 8.9
2014-Oct-26 23:32N 37°57' E 023°35'0 0.0
2014-Oct-26 22:29N 37°57' E 023°35'0 0.0
2014-Oct-26 21:32N 37°57' E 023°35'0 0.0
2014-Oct-26 20:32N 37°57' E 023°35'0 0.0
2014-Oct-26 19:32N 37°57' E 023°35'0 0.0
2014-Oct-26 18:32N 37°57' E 023°35'0 0.0
2014-Oct-26 17:33N 37°57' E 023°35'0 0.0
2014-Oct-26 16:33N 37°57' E 023°35'0 0.0
2014-Oct-26 15:33N 37°57' E 023°35'0 0.0
2014-Oct-26 14:33N 37°57' E 023°35'0 0.0
2014-Oct-26 13:33N 37°57' E 023°35'0 0.0
2014-Oct-26 12:33N 37°57' E 023°35'0 0.0
2014-Oct-26 11:33N 37°57' E 023°35'0 0.0
2014-Oct-26 10:33N 37°57' E 023°35'0 0.0
2014-Oct-26 09:33N 37°57' E 023°35'0 0.0
2014-Oct-26 08:33N 37°57' E 023°35'0 0.0
2014-Oct-26 07:33N 37°57' E 023°35'0 0.0
2014-Oct-26 06:33N 37°57' E 023°35'0 0.0
2014-Oct-26 05:34N 37°57' E 023°35'3 3.3
2014-Oct-26 04:34N 37°54' E 023°37'1010.3
2014-Oct-26 03:34N 37°45' E 023°43'1313.4
2014-Oct-26 02:34N 37°34' E 023°52'0 0.4
2014-Oct-26 01:26N 37°34' E 023°52'2 1.1
2014-Oct-25 23:17N 37°35' E 023°50'1 1.4
2014-Oct-25 22:32N 37°36' E 023°49'1 0.9
2014-Oct-25 21:33N 37°37' E 023°49'4 4.1
2014-Oct-25 20:32N 37°33' E 023°46'2 1.4
2014-Oct-25 19:23N 37°34' E 023°47'1 1.3
2014-Oct-25 18:32N 37°35' E 023°48'1 1.1
2014-Oct-25 17:29N 37°36' E 023°49'0 0.3
2014-Oct-25 16:32N 37°37' E 023°49'4511.2
2014-Oct-25 12:33N 36°54' E 024°07'1212.4
2014-Oct-25 11:33N 36°42' E 024°12'1211.6
2014-Oct-25 10:33N 36°33' E 024°21'1212.4
2014-Oct-25 09:33N 36°26' E 024°33'1212.2
2014-Oct-25 08:33N 36°19' E 024°46'1212.1
2014-Oct-25 07:33N 36°13' E 024°59'1212.0
2014-Oct-25 06:33N 36°06' E 025°11'1212.0
2014-Oct-25 05:33N 35°60' E 025°24'1212.2
2014-Oct-25 04:33N 35°53' E 025°36'1212.0
2014-Oct-25 03:33N 35°47' E 025°49'47312.4
2014-Oct-23 13:21N 32°57' E 034°43'1112.4
2014-Oct-23 12:27N 32°54' E 034°56'5 0.1
2014-Oct-22 01:27N 32°52' E 034°50'1212.7
2014-Oct-22 00:33N 32°40' E 034°46'1212.6
2014-Oct-21 23:33N 32°28' E 034°43'1312.5
2014-Oct-21 22:33N 32°16' E 034°38'1312.5
2014-Oct-21 21:32N 32°04' E 034°34'  

Dump ship's entire track history